Time;durP1;ratioP1;P1;durP2;ratioP2;P2;SDS_P1;SDS_P2;PMS_P1;PMS_P2;Temp;Humidity;BMP_temperature;BMP_pressure;BME280_temperature;BME280_humidity;BME280_pressure;Samples;Min_cycle;Max_cycle;Signal;HPM_P1;HPM_P2
2021/06/20 00:00:01;;;;;;;9.55;8.75;;;;;;;;;;4316979;33;20032;-79
2021/06/20 00:02:27;;;;;;;10.68;8.40;;;;;;;;;;4318124;33;20094;-79
2021/06/20 00:04:54;;;;;;;9.60;8.70;;;;;;;;;;4318791;33;20044;-78
2021/06/20 00:07:20;;;;;;;10.15;9.15;;;;;;;;;;4322119;33;20067;-79
2021/06/20 00:09:46;;;;;;;10.27;8.60;;;;;;;;;;4318836;33;20058;-79
2021/06/20 00:12:12;;;;;;;12.05;8.95;;;;;;;;;;4321839;33;20063;-79
2021/06/20 00:14:38;;;;;;;9.63;8.73;;;;;;;;;;4318120;33;20083;-79
2021/06/20 00:17:04;;;;;;;9.40;8.52;;;;;;;;;;4320453;33;20028;-79
2021/06/20 00:19:30;;;;;;;8.95;8.15;;;;;;;;;;4320622;33;20028;-79
2021/06/20 00:21:57;;;;;;;12.60;8.25;;;;;;;;;;4318456;33;20048;-79
2021/06/20 00:24:23;;;;;;;8.80;7.87;;;;;;;;;;4319526;33;20095;-79
2021/06/20 00:26:49;;;;;;;8.68;7.87;;;;;;;;;;4318843;33;20082;-80
2021/06/20 00:29:15;;;;;;;9.65;8.30;;;;;;;;;;4309057;33;20388;-79
2021/06/20 00:31:41;;;;;;;8.98;8.13;;;;;;;;;;4320953;33;20058;-79
2021/06/20 00:34:07;;;;;;;8.80;8.02;;;;;;;;;;4314013;33;20044;-79
2021/06/20 00:36:33;;;;;;;13.02;9.32;;;;;;;;;;4318175;33;20044;-79
2021/06/20 00:39:00;;;;;;;10.75;9.45;;;;;;;;;;4315548;33;20086;-79
2021/06/20 00:41:26;;;;;;;9.85;8.70;;;;;;;;;;4317501;33;20136;-79
2021/06/20 00:43:52;;;;;;;10.93;9.68;;;;;;;;;;4324323;33;20081;-80
2021/06/20 00:46:18;;;;;;;12.00;9.40;;;;;;;;;;4317175;33;20067;-79
2021/06/20 00:48:44;;;;;;;11.57;10.38;;;;;;;;;;4317148;33;20036;-79
2021/06/20 00:51:10;;;;;;;12.00;10.63;;;;;;;;;;4317143;33;20028;-78
2021/06/20 00:53:37;;;;;;;13.02;11.30;;;;;;;;;;4317077;33;20028;-79
2021/06/20 00:56:03;;;;;;;11.88;10.73;;;;;;;;;;4317920;33;20510;-79
2021/06/20 00:58:29;;;;;;;13.45;12.05;;;;;;;;;;4315824;33;20047;-79
2021/06/20 01:00:56;;;;;;;14.07;11.43;;;;;;;;;;4315563;33;20041;-79
2021/06/20 01:03:22;;;;;;;14.82;12.15;;;;;;;;;;4321132;33;20085;-79
2021/06/20 01:05:48;;;;;;;12.52;10.75;;;;;;;;;;4315502;33;20164;-79
2021/06/20 01:08:14;;;;;;;12.70;11.38;;;;;;;;;;4312962;33;20111;-79
2021/06/20 01:10:41;;;;;;;12.80;11.43;;;;;;;;;;4317763;33;20441;-79
2021/06/20 01:13:08;;;;;;;13.82;12.27;;;;;;;;;;4319326;33;20119;-79
2021/06/20 01:15:35;;;;;;;13.48;11.85;;;;;;;;;;4318904;33;20239;-79
2021/06/20 01:18:01;;;;;;;11.82;9.13;;;;;;;;;;4311803;33;20062;-79
2021/06/20 01:20:27;;;;;;;9.98;7.32;;;;;;;;;;4320418;33;20436;-79
2021/06/20 01:22:54;;;;;;;8.85;7.07;;;;;;;;;;4319383;33;20505;-79
2021/06/20 01:25:22;;;;;;;8.43;7.45;;;;;;;;;;4321394;33;20063;-79
2021/06/20 01:27:54;;;;;;;10.63;7.47;;;;;;;;;;4320024;33;20058;-79
2021/06/20 01:30:22;;;;;;;9.80;8.80;;;;;;;;;;4319225;33;20036;-79
2021/06/20 01:32:48;;;;;;;10.70;9.15;;;;;;;;;;4320308;33;20437;-79
2021/06/20 01:35:15;;;;;;;11.12;9.43;;;;;;;;;;4312381;33;20067;-79
2021/06/20 01:37:41;;;;;;;12.65;10.90;;;;;;;;;;4319071;33;20155;-79
2021/06/20 01:40:08;;;;;;;12.10;10.85;;;;;;;;;;4310628;33;20056;-79
2021/06/20 01:42:34;;;;;;;14.98;10.50;;;;;;;;;;4317513;33;20079;-79
2021/06/20 01:45:01;;;;;;;12.07;10.48;;;;;;;;;;4319848;33;20035;-79
2021/06/20 01:47:27;;;;;;;14.20;8.93;;;;;;;;;;4321512;33;20412;-79
2021/06/20 01:49:54;;;;;;;9.23;7.78;;;;;;;;;;4319730;33;20112;-79
2021/06/20 01:52:21;;;;;;;12.50;7.68;;;;;;;;;;4318017;33;20040;-79
2021/06/20 01:54:51;;;;;;;10.93;7.43;;;;;;;;;;4318102;33;20032;-79
2021/06/20 01:57:18;;;;;;;10.65;8.13;;;;;;;;;;4319104;33;20139;-79
2021/06/20 01:59:44;;;;;;;9.82;8.80;;;;;;;;;;4313113;33;20040;-79
2021/06/20 02:02:10;;;;;;;10.70;9.73;;;;;;;;;;4308528;33;20056;-79
2021/06/20 02:04:36;;;;;;;13.05;10.63;;;;;;;;;;4308927;33;20147;-79
2021/06/20 02:07:02;;;;;;;12.30;11.00;;;;;;;;;;4320065;33;20401;-79
2021/06/20 02:09:29;;;;;;;11.90;10.48;;;;;;;;;;4317510;33;20461;-79
2021/06/20 02:11:55;;;;;;;13.05;11.68;;;;;;;;;;4317826;33;20436;-79
2021/06/20 02:14:21;;;;;;;12.50;11.30;;;;;;;;;;4322678;33;20460;-78
2021/06/20 02:16:47;;;;;;;10.35;8.73;;;;;;;;;;4320119;33;20048;-79
2021/06/20 02:19:13;;;;;;;11.43;8.13;;;;;;;;;;4317285;33;20075;-79
2021/06/20 02:21:39;;;;;;;10.43;7.62;;;;;;;;;;4319212;33;20040;-79
2021/06/20 02:24:06;;;;;;;13.07;8.48;;;;;;;;;;4322128;33;20455;-79
2021/06/20 02:26:32;;;;;;;10.20;9.07;;;;;;;;;;4317912;33;20063;-79
2021/06/20 02:28:58;;;;;;;9.85;8.85;;;;;;;;;;4320902;33;20058;-80
2021/06/20 02:31:24;;;;;;;12.60;10.32;;;;;;;;;;4326386;33;20024;-79
2021/06/20 02:33:50;;;;;;;11.07;9.80;;;;;;;;;;4318778;33;20059;-79
2021/06/20 02:36:16;;;;;;;11.93;9.88;;;;;;;;;;4311593;33;20048;-80
2021/06/20 02:38:43;;;;;;;9.98;9.00;;;;;;;;;;4326809;33;20158;-79
2021/06/20 02:41:09;;;;;;;10.25;9.02;;;;;;;;;;4326032;33;20099;-79
2021/06/20 02:43:35;;;;;;;10.88;8.80;;;;;;;;;;4311074;33;20063;-80
2021/06/20 02:46:01;;;;;;;11.63;10.48;;;;;;;;;;4321568;33;20028;-79
2021/06/20 02:48:27;;;;;;;12.10;10.55;;;;;;;;;;4327380;33;20482;-79
2021/06/20 02:50:53;;;;;;;12.37;11.23;;;;;;;;;;4325660;33;20084;-79
2021/06/20 02:53:19;;;;;;;15.07;11.90;;;;;;;;;;4309724;33;20036;-79
2021/06/20 02:55:46;;;;;;;14.55;11.88;;;;;;;;;;4318176;33;20058;-79
2021/06/20 02:58:12;;;;;;;13.07;11.77;;;;;;;;;;4325941;33;20055;-79
2021/06/20 03:00:38;;;;;;;15.23;13.30;;;;;;;;;;4326412;33;20036;-79
2021/06/20 03:03:05;;;;;;;12.85;11.57;;;;;;;;;;4315502;33;20083;-79
2021/06/20 03:05:31;;;;;;;13.57;10.35;;;;;;;;;;4321880;33;20291;-78
2021/06/20 03:07:57;;;;;;;10.43;8.50;;;;;;;;;;4322070;33;20110;-79
2021/06/20 03:10:23;;;;;;;9.13;6.78;;;;;;;;;;4321471;33;20130;-79
2021/06/20 03:12:50;;;;;;;10.13;7.47;;;;;;;;;;4320964;33;20059;-79
2021/06/20 03:15:16;;;;;;;11.02;8.63;;;;;;;;;;4321179;33;20091;-79
2021/06/20 03:17:42;;;;;;;14.95;10.32;;;;;;;;;;4321847;33;20492;-79
2021/06/20 03:20:08;;;;;;;11.48;10.27;;;;;;;;;;4321788;33;20106;-79
2021/06/20 03:22:35;;;;;;;12.30;11.05;;;;;;;;;;4320869;33;20031;-79
2021/06/20 03:25:01;;;;;;;12.43;8.52;;;;;;;;;;4319805;33;20056;-79
2021/06/20 03:27:27;;;;;;;10.13;9.10;;;;;;;;;;4305403;33;20032;-80
2021/06/20 03:29:53;;;;;;;11.05;9.95;;;;;;;;;;4315105;33;20105;-79
2021/06/20 03:32:21;;;;;;;13.20;10.85;;;;;;;;;;4320712;33;20055;-79
2021/06/20 03:34:48;;;;;;;13.35;10.35;;;;;;;;;;4322460;33;20066;-79
2021/06/20 03:37:14;;;;;;;13.80;10.45;;;;;;;;;;4321862;33;20119;-79
2021/06/20 03:39:41;;;;;;;11.43;10.32;;;;;;;;;;4321109;33;20032;-80
2021/06/20 03:42:07;;;;;;;15.18;11.43;;;;;;;;;;4321886;33;20130;-79
2021/06/20 03:44:34;;;;;;;13.45;12.05;;;;;;;;;;4320527;33;20097;-79
2021/06/20 03:47:00;;;;;;;13.15;11.88;;;;;;;;;;4305365;33;20549;-79
2021/06/20 03:49:26;;;;;;;13.80;12.40;;;;;;;;;;4319130;33;20028;-79
2021/06/20 03:51:52;;;;;;;13.45;11.25;;;;;;;;;;4319872;33;20032;-79
2021/06/20 03:54:20;;;;;;;15.13;10.77;;;;;;;;;;4320493;33;20048;-79
2021/06/20 03:56:47;;;;;;;12.45;10.88;;;;;;;;;;4320214;33;20115;-79
2021/06/20 03:59:13;;;;;;;10.38;9.23;;;;;;;;;;4320119;33;20437;-79
2021/06/20 04:01:39;;;;;;;11.88;10.18;;;;;;;;;;4303807;33;20094;-79
2021/06/20 04:04:05;;;;;;;11.30;9.93;;;;;;;;;;4314389;33;20062;-79
2021/06/20 04:06:32;;;;;;;12.43;11.12;;;;;;;;;;4318638;33;20476;-79
2021/06/20 04:08:58;;;;;;;18.87;12.23;;;;;;;;;;4319957;33;20058;-79
2021/06/20 04:11:26;;;;;;;14.87;12.27;;;;;;;;;;4321053;33;20142;-79
2021/06/20 04:13:52;;;;;;;14.15;12.68;;;;;;;;;;4320335;33;20115;-79
2021/06/20 04:16:18;;;;;;;16.35;13.02;;;;;;;;;;4320155;33;20470;-79
2021/06/20 04:18:45;;;;;;;13.65;12.25;;;;;;;;;;4320564;33;20498;-80
2021/06/20 04:21:11;;;;;;;13.40;11.82;;;;;;;;;;4303955;33;20115;-79
2021/06/20 04:23:37;;;;;;;16.17;12.43;;;;;;;;;;4320194;33;20094;-80
2021/06/20 04:26:03;;;;;;;13.70;12.23;;;;;;;;;;4320801;33;20043;-79
2021/06/20 04:28:29;;;;;;;13.50;12.00;;;;;;;;;;4321130;33;20345;-79
2021/06/20 04:30:56;;;;;;;11.70;10.38;;;;;;;;;;4320304;33;20060;-78
2021/06/20 04:33:23;;;;;;;13.38;11.82;;;;;;;;;;4321546;33;20036;-79
2021/06/20 04:35:50;;;;;;;14.10;11.90;;;;;;;;;;4307409;33;20123;-79
2021/06/20 04:38:18;;;;;;;12.98;11.75;;;;;;;;;;4319667;33;20052;-79
2021/06/20 04:40:44;;;;;;;20.85;12.68;;;;;;;;;;4319737;33;20032;-79
2021/06/20 04:43:23;;;;;;;16.95;11.85;;;;;;;;;;4321072;33;20171;-79
2021/06/20 04:45:49;;;;;;;13.57;12.15;;;;;;;;;;4319604;33;20083;-79
2021/06/20 04:48:15;;;;;;;12.48;11.25;;;;;;;;;;4320103;33;20040;-80
2021/06/20 04:50:42;;;;;;;14.68;11.57;;;;;;;;;;4321215;33;20052;-79
2021/06/20 04:53:08;;;;;;;14.52;11.45;;;;;;;;;;4319529;33;20044;-79
2021/06/20 04:55:34;;;;;;;12.85;10.82;;;;;;;;;;4319431;33;20035;-79
2021/06/20 04:58:01;;;;;;;18.10;11.15;;;;;;;;;;4305207;33;20102;-79
2021/06/20 05:00:28;;;;;;;14.23;10.55;;;;;;;;;;4311476;33;20036;-79
2021/06/20 05:02:54;;;;;;;13.52;9.85;;;;;;;;;;4320552;33;20429;-79
2021/06/20 05:05:20;;;;;;;13.73;10.27;;;;;;;;;;4303291;33;20040;-79
2021/06/20 05:07:46;;;;;;;10.43;9.13;;;;;;;;;;4315550;33;20119;-79
2021/06/20 05:10:12;;;;;;;14.35;10.15;;;;;;;;;;4318479;33;20111;-79
2021/06/20 05:12:38;;;;;;;23.45;11.60;;;;;;;;;;4319235;33;20063;-80
2021/06/20 05:15:07;;;;;;;241.50;111.30;;;;;;;;;;4319077;33;20503;-78
2021/06/20 05:17:33;;;;;;;204.13;95.50;;;;;;;;;;4303468;33;20063;-79
2021/06/20 05:19:59;;;;;;;114.95;54.90;;;;;;;;;;4316896;33;20429;-80
2021/06/20 05:22:26;;;;;;;30.37;16.95;;;;;;;;;;4318548;33;20032;-79
2021/06/20 05:24:52;;;;;;;16.30;12.40;;;;;;;;;;4319822;33;20576;-79
2021/06/20 05:27:18;;;;;;;15.52;10.90;;;;;;;;;;4319431;33;20357;-79
2021/06/20 05:29:44;;;;;;;20.30;11.60;;;;;;;;;;4303545;33;20079;-77
2021/06/20 05:32:10;;;;;;;20.17;15.10;;;;;;;;;;4316597;33;20916;-78
2021/06/20 05:34:37;;;;;;;21.80;11.15;;;;;;;;;;4319495;33;20028;-78
2021/06/20 05:37:03;;;;;;;12.23;8.55;;;;;;;;;;4318347;33;20068;-82
2021/06/20 05:39:29;;;;;;;10.40;8.88;;;;;;;;;;4306969;33;20612;-80
2021/06/20 05:41:55;;;;;;;12.32;8.55;;;;;;;;;;4306614;33;20164;-75
2021/06/20 05:44:22;;;;;;;14.05;8.50;;;;;;;;;;4307806;33;20062;-84
2021/06/20 05:46:48;;;;;;;7.57;6.82;;;;;;;;;;4305622;33;20354;-78
2021/06/20 05:49:14;;;;;;;8.65;7.50;;;;;;;;;;4306473;33;20097;-76
2021/06/20 05:51:40;;;;;;;9.68;7.70;;;;;;;;;;4305581;33;20130;-76
2021/06/20 05:54:06;;;;;;;11.45;8.43;;;;;;;;;;4305019;33;20032;-79
2021/06/20 05:56:32;;;;;;;9.75;7.12;;;;;;;;;;4307159;33;20028;-77
2021/06/20 05:58:59;;;;;;;10.05;8.68;;;;;;;;;;4309483;33;20874;-81
2021/06/20 06:01:25;;;;;;;13.80;8.23;;;;;;;;;;4310133;33;20062;-77
2021/06/20 06:03:51;;;;;;;9.85;8.73;;;;;;;;;;4308664;33;20151;-76
2021/06/20 06:06:17;;;;;;;12.27;9.40;;;;;;;;;;4310330;33;20040;-77
2021/06/20 06:08:43;;;;;;;10.93;9.05;;;;;;;;;;4316801;33;20029;-77
2021/06/20 06:11:09;;;;;;;11.82;9.32;;;;;;;;;;4308401;33;20036;-78
2021/06/20 06:13:35;;;;;;;10.02;8.95;;;;;;;;;;4308781;33;20086;-77
2021/06/20 06:16:01;;;;;;;11.65;9.50;;;;;;;;;;4308057;33;20037;-77
2021/06/20 06:18:28;;;;;;;10.10;9.18;;;;;;;;;;4309240;33;20090;-78
2021/06/20 06:20:54;;;;;;;10.40;8.90;;;;;;;;;;4319290;33;20563;-78
2021/06/20 06:23:20;;;;;;;12.63;10.27;;;;;;;;;;4320940;33;20265;-78
2021/06/20 06:25:46;;;;;;;10.77;9.70;;;;;;;;;;4320261;33;20059;-77
2021/06/20 06:28:12;;;;;;;8.95;8.23;;;;;;;;;;4301751;33;20036;-77
2021/06/20 06:30:39;;;;;;;10.63;9.18;;;;;;;;;;4307821;33;20106;-78
2021/06/20 06:33:05;;;;;;;9.77;8.65;;;;;;;;;;4309123;33;20062;-77
2021/06/20 06:35:31;;;;;;;10.52;9.35;;;;;;;;;;4307472;33;20059;-78
2021/06/20 06:37:58;;;;;;;9.65;8.52;;;;;;;;;;4307169;33;20516;-78
2021/06/20 06:40:24;;;;;;;9.70;8.73;;;;;;;;;;4317319;33;20078;-77
2021/06/20 06:42:50;;;;;;;9.68;8.82;;;;;;;;;;4320953;33;20035;-77
2021/06/20 06:45:17;;;;;;;11.00;8.23;;;;;;;;;;4321129;33;20024;-77
2021/06/20 06:47:43;;;;;;;10.18;6.82;;;;;;;;;;4321388;33;20437;-78
2021/06/20 06:50:09;;;;;;;7.47;6.75;;;;;;;;;;4323598;33;20494;-78
2021/06/20 06:52:36;;;;;;;8.57;7.20;;;;;;;;;;4321352;33;20055;-78
2021/06/20 06:55:05;;;;;;;7.60;6.80;;;;;;;;;;4317863;33;20445;-77
2021/06/20 06:57:32;;;;;;;6.75;6.15;;;;;;;;;;4322319;33;20502;-78
2021/06/20 06:59:59;;;;;;;6.62;5.53;;;;;;;;;;4316491;33;20036;-78
2021/06/20 07:02:25;;;;;;;6.97;6.10;;;;;;;;;;4308326;33;20688;-79
2021/06/20 07:04:51;;;;;;;6.07;5.37;;;;;;;;;;4307975;33;20056;-77
2021/06/20 07:07:17;;;;;;;7.40;5.32;;;;;;;;;;4313309;33;20075;-77
2021/06/20 07:09:44;;;;;;;6.40;5.80;;;;;;;;;;4312914;33;20480;-78
2021/06/20 07:12:10;;;;;;;6.07;5.10;;;;;;;;;;4308742;33;20048;-78
2021/06/20 07:14:37;;;;;;;6.57;5.50;;;;;;;;;;4315509;33;20058;-78
2021/06/20 07:17:03;;;;;;;6.32;5.50;;;;;;;;;;4316291;33;20052;-78
2021/06/20 07:19:30;;;;;;;8.00;5.40;;;;;;;;;;4306994;33;20036;-78
2021/06/20 07:21:56;;;;;;;6.20;5.57;;;;;;;;;;4306983;33;20056;-78
2021/06/20 07:24:22;;;;;;;5.97;5.10;;;;;;;;;;4310390;33;20028;-78
2021/06/20 07:26:48;;;;;;;6.78;5.15;;;;;;;;;;4311853;33;20056;-78
2021/06/20 07:29:14;;;;;;;7.93;5.40;;;;;;;;;;4308197;33;20055;-78
2021/06/20 07:31:41;;;;;;;5.93;4.93;;;;;;;;;;4307615;33;20054;-78
2021/06/20 07:34:07;;;;;;;7.57;5.20;;;;;;;;;;4308426;33;20107;-78
2021/06/20 07:36:33;;;;;;;5.35;4.65;;;;;;;;;;4306966;33;21559;-78
2021/06/20 07:38:59;;;;;;;5.30;4.80;;;;;;;;;;4308162;33;20290;-78
2021/06/20 07:41:27;;;;;;;4.55;4.15;;;;;;;;;;4307049;33;20044;-79
2021/06/20 07:43:53;;;;;;;4.95;4.45;;;;;;;;;;4307397;33;20084;-78
2021/06/20 07:46:19;;;;;;;3.97;3.65;;;;;;;;;;4307324;33;20377;-78
2021/06/20 07:48:45;;;;;;;4.55;4.12;;;;;;;;;;4306825;33;20501;-79
2021/06/20 07:51:12;;;;;;;6.28;4.70;;;;;;;;;;4308409;33;20047;-78
2021/06/20 07:53:38;;;;;;;5.22;4.72;;;;;;;;;;4309944;33;20353;-78
2021/06/20 07:56:04;;;;;;;5.93;4.70;;;;;;;;;;4307044;33;20305;-78
2021/06/20 07:58:31;;;;;;;7.93;4.62;;;;;;;;;;4305428;33;20472;-78
2021/06/20 08:00:57;;;;;;;5.70;5.20;;;;;;;;;;4308531;33;20028;-78
2021/06/20 08:03:23;;;;;;;5.95;5.35;;;;;;;;;;4315325;33;20110;-78
2021/06/20 08:05:49;;;;;;;11.93;7.07;;;;;;;;;;4312821;33;20174;-78
2021/06/20 08:08:17;;;;;;;12.88;6.80;;;;;;;;;;4308861;33;20047;-77
2021/06/20 08:10:44;;;;;;;7.43;5.55;;;;;;;;;;4314056;33;20133;-77
2021/06/20 08:13:10;;;;;;;7.03;6.25;;;;;;;;;;4300966;33;229836;-77
2021/06/20 08:15:36;;;;;;;8.80;6.28;;;;;;;;;;4305188;33;20048;-78
2021/06/20 08:18:02;;;;;;;8.10;5.85;;;;;;;;;;4307584;33;20115;-76
2021/06/20 08:20:28;;;;;;;7.45;6.03;;;;;;;;;;4305507;33;20028;-74
2021/06/20 08:22:55;;;;;;;5.97;5.28;;;;;;;;;;4308301;33;20063;-77
2021/06/20 08:25:21;;;;;;;8.93;5.43;;;;;;;;;;4316892;33;20037;-77
2021/06/20 08:27:47;;;;;;;8.45;5.97;;;;;;;;;;4305439;33;20032;-76
2021/06/20 08:30:14;;;;;;;9.60;7.00;;;;;;;;;;4308181;33;20117;-75
2021/06/20 08:32:40;;;;;;;5.85;5.25;;;;;;;;;;4318481;33;20063;-78
2021/06/20 08:35:07;;;;;;;11.48;5.97;;;;;;;;;;4318017;33;20025;-77
2021/06/20 08:37:33;;;;;;;5.47;4.80;;;;;;;;;;4307174;33;20436;-77
2021/06/20 08:39:59;;;;;;;7.50;5.95;;;;;;;;;;4304912;33;20112;-77
2021/06/20 08:42:25;;;;;;;6.00;5.47;;;;;;;;;;4306136;33;20975;-77
2021/06/20 08:44:52;;;;;;;9.77;6.80;;;;;;;;;;4313335;33;20616;-76
2021/06/20 08:47:18;;;;;;;7.12;6.28;;;;;;;;;;4304860;33;20051;-77
2021/06/20 08:49:45;;;;;;;7.28;6.15;;;;;;;;;;4305642;33;20068;-76
2021/06/20 08:52:12;;;;;;;8.23;6.05;;;;;;;;;;4304779;33;20024;-78
2021/06/20 08:54:38;;;;;;;6.40;5.80;;;;;;;;;;4306811;33;20033;-79
2021/06/20 08:57:06;;;;;;;10.05;6.05;;;;;;;;;;4303243;33;20147;-79
2021/06/20 08:59:32;;;;;;;8.73;5.40;;;;;;;;;;4308287;33;20060;-78
2021/06/20 09:01:59;;;;;;;5.47;4.95;;;;;;;;;;4297109;33;20091;-79
2021/06/20 09:04:31;;;;;;;7.20;5.30;;;;;;;;;;4305013;33;20036;-78
2021/06/20 09:07:02;;;;;;;6.00;5.00;;;;;;;;;;4312855;33;20702;-78
2021/06/20 09:09:32;;;;;;;6.07;4.75;;;;;;;;;;4303610;33;20040;-78
2021/06/20 09:12:09;;;;;;;5.32;4.82;;;;;;;;;;4304832;33;20401;-78
2021/06/20 09:14:46;;;;;;;5.90;4.68;;;;;;;;;;4307617;33;20098;-78
2021/06/20 09:17:12;;;;;;;6.07;4.32;;;;;;;;;;4312166;33;20124;-78
2021/06/20 09:19:39;;;;;;;5.12;4.30;;;;;;;;;;4306656;33;20075;-78
2021/06/20 09:22:08;;;;;;;4.37;3.97;;;;;;;;;;4304391;33;20163;-78
2021/06/20 09:24:34;;;;;;;4.37;3.97;;;;;;;;;;4316336;33;20437;-78
2021/06/20 09:27:01;;;;;;;4.80;4.40;;;;;;;;;;4299992;33;20091;-79
2021/06/20 09:29:37;;;;;;;4.75;4.18;;;;;;;;;;4318833;33;20535;-78
2021/06/20 09:32:05;;;;;;;4.87;4.22;;;;;;;;;;4321546;33;20090;-80
2021/06/20 09:34:52;;;;;;;;;;;;;;;;;;;;;
2021/06/20 09:37:20;;;;;;;8.10;4.55;;;;;;;;;;4321464;33;20472;-81
2021/06/20 09:39:47;;;;;;;6.53;5.05;;;;;;;;;;4304951;33;20750;-80
2021/06/20 09:42:19;;;;;;;9.32;4.87;;;;;;;;;;4305567;33;20110;-84
2021/06/20 09:44:49;;;;;;;5.93;4.90;;;;;;;;;;4315596;33;20044;-80
2021/06/20 09:47:16;;;;;;;6.53;4.60;;;;;;;;;;4306461;33;20040;-78
2021/06/20 09:49:43;;;;;;;8.15;5.32;;;;;;;;;;4305070;33;20171;-80
2021/06/20 09:52:11;;;;;;;7.43;4.57;;;;;;;;;;4318587;33;20434;-81
2021/06/20 09:54:43;;;;;;;6.87;4.80;;;;;;;;;;4308269;33;20088;-84
2021/06/20 09:57:16;;;;;;;9.73;5.20;;;;;;;;;;4321528;33;20044;-77
2021/06/20 09:59:53;;;;;;;6.37;4.70;;;;;;;;;;4321227;33;20102;-77
2021/06/20 10:02:23;;;;;;;5.47;4.90;;;;;;;;;;4319209;33;20151;-77
2021/06/20 10:04:50;;;;;;;6.22;5.18;;;;;;;;;;4320583;33;20063;-79
2021/06/20 10:07:16;;;;;;;7.37;5.00;;;;;;;;;;4311692;33;20106;-78
2021/06/20 10:09:42;;;;;;;5.20;4.70;;;;;;;;;;4321373;33;20060;-78
2021/06/20 10:12:09;;;;;;;7.32;4.55;;;;;;;;;;4321528;33;20048;-77
2021/06/20 10:14:41;;;;;;;10.35;5.43;;;;;;;;;;4320112;33;20047;-76
2021/06/20 10:17:09;;;;;;;8.70;5.28;;;;;;;;;;4321281;33;20087;-74
2021/06/20 10:19:40;;;;;;;9.77;5.43;;;;;;;;;;4320776;33;20968;-77
2021/06/20 10:22:08;;;;;;;4.87;4.28;;;;;;;;;;4320381;33;20432;-76
2021/06/20 10:24:53;;;;;;;5.82;4.68;;;;;;;;;;4321811;33;20106;-76
2021/06/20 10:27:48;;;;;;;8.35;4.65;;;;;;;;;;4320568;33;20094;-76
2021/06/20 10:30:18;;;;;;;4.85;4.45;;;;;;;;;;4320222;33;20071;-77
2021/06/20 10:32:46;;;;;;;11.25;4.70;;;;;;;;;;4321257;33;20645;-77
2021/06/20 10:35:17;;;;;;;4.85;4.30;;;;;;;;;;4320013;33;20040;-76
2021/06/20 10:37:43;;;;;;;5.53;4.28;;;;;;;;;;4309013;33;20063;-78
2021/06/20 10:40:19;;;;;;;3.95;3.55;;;;;;;;;;4322280;33;20066;-74
2021/06/20 10:42:46;;;;;;;5.25;4.40;;;;;;;;;;4320025;33;20040;-75
2021/06/20 10:45:13;;;;;;;6.72;4.68;;;;;;;;;;4320699;33;20052;-76
2021/06/20 10:47:43;;;;;;;5.62;4.12;;;;;;;;;;4321223;33;20040;-77
2021/06/20 10:50:13;;;;;;;5.60;3.80;;;;;;;;;;4310488;33;20440;-76
2021/06/20 10:52:40;;;;;;;5.13;4.13;;;;;;;;;;4319943;33;20531;-78
2021/06/20 10:55:09;;;;;;;5.53;4.18;;;;;;;;;;4320984;33;20497;-75
2021/06/20 10:57:42;;;;;;;5.15;4.10;;;;;;;;;;4321500;33;20524;-75
2021/06/20 11:00:08;;;;;;;4.80;4.20;;;;;;;;;;4318328;33;20036;-74
2021/06/20 11:02:35;;;;;;;7.70;4.00;;;;;;;;;;4317146;33;20060;-75
2021/06/20 11:05:02;;;;;;;9.43;4.20;;;;;;;;;;4320890;33;20098;-76
2021/06/20 11:07:29;;;;;;;7.35;4.10;;;;;;;;;;4317085;33;20052;-74
2021/06/20 11:09:58;;;;;;;7.10;4.37;;;;;;;;;;4306454;33;20040;-74
2021/06/20 11:12:26;;;;;;;6.68;4.53;;;;;;;;;;4319842;33;20162;-76
2021/06/20 11:14:54;;;;;;;7.18;4.78;;;;;;;;;;4318660;33;20056;-77
2021/06/20 11:17:21;;;;;;;6.87;4.72;;;;;;;;;;4320491;33;20472;-76
2021/06/20 11:19:47;;;;;;;6.22;4.18;;;;;;;;;;4316532;33;20075;-74
2021/06/20 11:22:15;;;;;;;5.45;4.30;;;;;;;;;;4312224;33;20083;-76
2021/06/20 11:24:51;;;;;;;9.95;4.70;;;;;;;;;;4318860;33;20044;-77
2021/06/20 11:27:18;;;;;;;8.70;4.37;;;;;;;;;;4313131;33;20150;-76
2021/06/20 11:29:44;;;;;;;12.75;4.95;;;;;;;;;;4318807;33;20133;-76
2021/06/20 11:32:15;;;;;;;8.05;4.78;;;;;;;;;;4318185;33;20726;-78
2021/06/20 11:35:00;;;;;;;6.78;4.60;;;;;;;;;;4315561;33;20534;-78
2021/06/20 11:37:32;;;;;;;6.47;4.35;;;;;;;;;;4317945;33;20107;-76
2021/06/20 11:40:05;;;;;;;7.93;4.72;;;;;;;;;;4319496;33;20071;-78
2021/06/20 11:42:33;;;;;;;7.07;4.40;;;;;;;;;;4319543;33;20062;-79
2021/06/20 11:45:07;;;;;;;6.82;4.25;;;;;;;;;;4314859;33;20043;-78
2021/06/20 11:47:38;;;;;;;6.53;4.50;;;;;;;;;;4319495;33;20083;-79
2021/06/20 11:50:10;;;;;;;6.43;4.10;;;;;;;;;;4318181;33;20093;-75
2021/06/20 11:52:37;;;;;;;5.43;4.00;;;;;;;;;;4308470;33;20067;-75
2021/06/20 11:55:14;;;;;;;5.75;4.40;;;;;;;;;;4315256;33;20377;-77
2021/06/20 11:57:41;;;;;;;6.32;4.85;;;;;;;;;;4319998;33;20687;-73
2021/06/20 12:00:11;;;;;;;7.05;4.43;;;;;;;;;;4318770;33;20066;-74
2021/06/20 12:02:37;;;;;;;5.70;4.67;;;;;;;;;;4319343;33;20048;-74
2021/06/20 12:05:04;;;;;;;6.68;4.20;;;;;;;;;;4319910;33;20182;-75
2021/06/20 12:07:30;;;;;;;6.60;4.32;;;;;;;;;;4320409;33;20048;-78
2021/06/20 12:09:56;;;;;;;6.37;4.53;;;;;;;;;;4319736;33;20044;-76
2021/06/20 12:12:22;;;;;;;5.30;3.95;;;;;;;;;;4303829;33;20048;-81
2021/06/20 12:15:02;;;;;;;7.90;4.20;;;;;;;;;;4315453;33;20060;-77
2021/06/20 12:17:28;;;;;;;5.03;3.65;;;;;;;;;;4319498;33;20066;-76
2021/06/20 12:19:55;;;;;;;10.38;4.32;;;;;;;;;;4304903;33;20920;-76
2021/06/20 12:22:22;;;;;;;5.87;3.50;;;;;;;;;;4319175;33;20082;-76
2021/06/20 12:24:49;;;;;;;9.75;3.87;;;;;;;;;;4318765;33;20036;-76
2021/06/20 12:27:27;;;;;;;7.72;3.70;;;;;;;;;;4318795;33;20082;-76
2021/06/20 12:29:53;;;;;;;10.52;4.32;;;;;;;;;;4318637;33;20036;-76
2021/06/20 12:32:19;;;;;;;7.70;4.10;;;;;;;;;;4319125;33;20339;-76
2021/06/20 12:34:50;;;;;;;8.85;4.18;;;;;;;;;;4319060;33;20039;-76
2021/06/20 12:37:16;;;;;;;10.63;4.22;;;;;;;;;;4318526;33;20580;-76
2021/06/20 12:39:54;;;;;;;17.05;4.10;;;;;;;;;;4318932;33;20425;-76
2021/06/20 12:42:21;;;;;;;30.98;6.43;;;;;;;;;;4318938;33;20522;-77
2021/06/20 12:44:49;;;;;;;29.33;6.22;;;;;;;;;;4317947;33;20040;-79
2021/06/20 12:47:16;;;;;;;41.22;6.60;;;;;;;;;;4303243;33;20456;-78
2021/06/20 12:49:45;;;;;;;31.02;5.78;;;;;;;;;;4318392;33;20036;-78
2021/06/20 12:52:11;;;;;;;29.40;5.75;;;;;;;;;;4319144;33;20039;-77
2021/06/20 12:54:38;;;;;;;23.75;5.82;;;;;;;;;;4317616;33;20352;-78
2021/06/20 12:57:05;;;;;;;33.97;5.90;;;;;;;;;;4318635;33;20044;-77
2021/06/20 12:59:38;;;;;;;33.20;6.00;;;;;;;;;;4319295;33;20106;-77
2021/06/20 13:02:05;;;;;;;37.90;7.47;;;;;;;;;;4318901;33;20381;-77
2021/06/20 13:04:32;;;;;;;47.50;7.30;;;;;;;;;;4319755;33;20062;-79
2021/06/20 13:06:59;;;;;;;37.80;7.12;;;;;;;;;;4305112;33;20048;-78
2021/06/20 13:09:25;;;;;;;41.95;7.97;;;;;;;;;;4317653;33;20102;-78
2021/06/20 13:11:52;;;;;;;48.40;7.50;;;;;;;;;;4305664;33;20269;-78
2021/06/20 13:14:19;;;;;;;35.30;7.87;;;;;;;;;;4316035;33;20341;-77
2021/06/20 13:16:47;;;;;;;45.25;7.53;;;;;;;;;;4305810;33;20048;-77
2021/06/20 13:19:14;;;;;;;31.25;7.22;;;;;;;;;;4313963;33;20116;-77
2021/06/20 13:21:40;;;;;;;43.47;8.02;;;;;;;;;;4321801;33;20074;-78
2021/06/20 13:24:10;;;;;;;61.53;9.05;;;;;;;;;;4321550;33;20048;-78
2021/06/20 13:26:37;;;;;;;42.93;7.90;;;;;;;;;;4321315;33;20036;-78
2021/06/20 13:29:03;;;;;;;38.72;8.15;;;;;;;;;;4306656;33;20456;-78
2021/06/20 13:31:29;;;;;;;21.85;5.45;;;;;;;;;;4321761;33;20099;-79
2021/06/20 13:33:56;;;;;;;15.40;4.93;;;;;;;;;;4306258;33;20512;-80
2021/06/20 13:36:23;;;;;;;16.05;4.90;;;;;;;;;;4321714;33;20375;-79
2021/06/20 13:38:49;;;;;;;22.75;4.78;;;;;;;;;;4304175;33;20040;-78
2021/06/20 13:41:16;;;;;;;15.85;4.43;;;;;;;;;;4321318;33;20048;-79
2021/06/20 13:43:42;;;;;;;12.90;5.03;;;;;;;;;;4321260;33;20096;-79
2021/06/20 13:46:09;;;;;;;13.02;3.85;;;;;;;;;;4320802;33;20091;-79
2021/06/20 13:48:35;;;;;;;20.73;4.80;;;;;;;;;;4321080;33;20086;-79
2021/06/20 13:51:02;;;;;;;17.23;4.93;;;;;;;;;;4319986;33;20036;-80
2021/06/20 13:53:28;;;;;;;15.82;4.20;;;;;;;;;;4321566;33;20290;-80
2021/06/20 13:55:54;;;;;;;25.05;4.95;;;;;;;;;;4320848;33;20389;-79
2021/06/20 13:58:21;;;;;;;14.98;5.07;;;;;;;;;;4308389;33;20087;-79
2021/06/20 14:00:49;;;;;;;25.23;6.82;;;;;;;;;;4300259;33;20060;-78
2021/06/20 14:03:15;;;;;;;56.63;9.85;;;;;;;;;;4307561;33;20066;-79
2021/06/20 14:05:41;;;;;;;50.05;8.88;;;;;;;;;;4300326;33;20456;-78
2021/06/20 14:08:07;;;;;;;15.68;4.75;;;;;;;;;;4311824;33;20159;-78
2021/06/20 14:10:34;;;;;;;21.37;5.45;;;;;;;;;;4306291;33;20120;-78
2021/06/20 14:13:00;;;;;;;12.68;4.20;;;;;;;;;;4308397;33;20037;-79
2021/06/20 14:15:26;;;;;;;19.17;4.62;;;;;;;;;;4310834;33;20410;-78
2021/06/20 14:17:52;;;;;;;24.02;6.22;;;;;;;;;;4321178;33;20254;-79
2021/06/20 14:20:18;;;;;;;15.07;4.72;;;;;;;;;;4320914;33;20052;-79
2021/06/20 14:22:45;;;;;;;15.77;4.97;;;;;;;;;;4319178;33;20102;-78
2021/06/20 14:25:12;;;;;;;21.62;5.25;;;;;;;;;;4304566;33;20107;-79
2021/06/20 14:27:38;;;;;;;21.73;4.70;;;;;;;;;;4307179;33;20051;-79
2021/06/20 14:30:06;;;;;;;19.52;4.95;;;;;;;;;;4321039;33;20093;-79
2021/06/20 14:32:32;;;;;;;20.50;4.93;;;;;;;;;;4320799;33;20044;-79